createdAt,value
2023-05-02T05:03:52.448Z,1.77
2023-05-02T05:06:19.876Z,2.03
2023-05-02T05:08:47.167Z,1.60
2023-05-02T05:11:21.950Z,1.60
2023-05-02T05:13:48.986Z,1.90
2023-05-02T05:16:16.854Z,1.40
2023-05-02T05:18:44.732Z,1.88
2023-05-02T05:21:14.033Z,1.40
2023-05-02T05:23:41.290Z,1.63
2023-05-02T05:26:12.567Z,1.50
2023-05-02T05:28:40.889Z,1.85
2023-05-02T05:33:50.006Z,1.48
2023-05-02T05:36:20.003Z,1.83
2023-05-02T05:38:49.277Z,1.92
2023-05-02T05:41:23.820Z,1.63
2023-05-02T05:43:52.451Z,1.70
2023-05-02T05:46:20.409Z,1.70
2023-05-02T05:48:48.830Z,1.92
2023-05-02T05:51:16.190Z,1.83
2023-05-02T05:53:44.918Z,2.10
2023-05-02T05:56:15.786Z,1.80
2023-05-02T06:01:28.994Z,1.50
2023-05-02T06:03:56.178Z,2.35
2023-05-02T06:06:26.345Z,1.80
2023-05-02T06:12:05.446Z,1.80
2023-05-02T06:14:32.260Z,1.73
2023-05-02T06:16:59.488Z,1.90
2023-05-02T06:19:26.370Z,1.70
2023-05-02T06:21:53.354Z,1.80
2023-05-02T06:24:20.158Z,1.75
2023-05-02T06:26:46.934Z,1.80
2023-05-02T06:29:15.260Z,2.28
2023-05-02T06:31:42.111Z,2.03
2023-05-02T06:34:08.942Z,2.33
2023-05-02T06:36:35.717Z,2.22
2023-05-02T06:39:02.588Z,2.50
2023-05-02T06:41:29.434Z,2.17
2023-05-02T06:43:56.305Z,2.20
2023-05-02T06:46:28.059Z,2.50
2023-05-02T06:48:54.849Z,2.30
2023-05-02T06:51:21.682Z,2.20
2023-05-02T06:53:48.484Z,2.25
2023-05-02T06:56:15.349Z,2.38
2023-05-02T06:58:42.124Z,2.28
2023-05-02T07:01:09.127Z,2.28
2023-05-02T07:03:37.369Z,2.40
2023-05-02T07:06:04.351Z,2.42
2023-05-02T07:08:31.220Z,2.60
2023-05-02T07:10:57.983Z,2.70
2023-05-02T07:13:24.896Z,2.50
2023-05-02T07:15:51.646Z,2.60
2023-05-02T07:18:18.490Z,2.40
2023-05-02T07:20:46.743Z,2.75
2023-05-02T07:23:13.509Z,2.92
2023-05-02T07:25:40.338Z,2.72
2023-05-02T07:28:08.596Z,2.50
2023-05-02T07:30:35.359Z,2.78
2023-05-02T07:33:02.270Z,3.13
2023-05-02T07:35:29.079Z,3.28
2023-05-02T07:37:57.225Z,2.88
2023-05-02T07:40:24.028Z,3.13
2023-05-02T07:42:50.810Z,3.25
2023-05-02T07:45:17.812Z,3.15
2023-05-02T07:47:45.347Z,2.97
2023-05-02T07:50:12.195Z,3.25
2023-05-02T07:52:39.164Z,3.15
2023-05-02T07:55:08.586Z,3.70
2023-05-02T07:57:35.386Z,3.20
2023-05-02T08:00:02.832Z,3.20
2023-05-02T08:02:30.048Z,3.70
2023-05-02T08:04:56.936Z,3.55
2023-05-02T08:07:23.825Z,3.92
2023-05-02T08:09:50.599Z,4.22
2023-05-02T08:12:18.775Z,3.63
2023-05-02T08:14:45.543Z,3.97
2023-05-02T08:17:12.380Z,3.22
2023-05-02T08:19:39.151Z,3.70
2023-05-02T08:22:06.776Z,3.72
2023-05-02T08:24:33.623Z,3.88
2023-05-02T08:27:00.453Z,3.70
2023-05-02T08:29:28.574Z,4.22
2023-05-02T08:31:55.349Z,4.00
2023-05-02T08:34:22.195Z,4.30
2023-05-02T08:36:49.010Z,3.95
2023-05-02T08:39:15.810Z,3.85
2023-05-02T08:41:42.770Z,3.78
2023-05-02T08:44:20.150Z,3.58
2023-05-02T08:46:50.859Z,3.88
2023-05-02T08:49:19.288Z,4.03
2023-05-02T08:51:49.152Z,4.78
2023-05-02T08:54:17.286Z,4.75
2023-05-02T08:56:44.789Z,4.80
2023-05-02T08:59:11.569Z,4.13
2023-05-02T09:01:44.662Z,4.20
2023-05-02T09:04:13.079Z,4.20
2023-05-02T09:06:39.969Z,4.68
2023-05-02T09:09:06.921Z,3.92
2023-05-02T09:11:33.644Z,4.22
2023-05-02T09:14:00.390Z,3.97
2023-05-02T09:16:28.584Z,4.22
2023-05-02T09:18:57.216Z,4.03
2023-05-02T09:21:34.795Z,4.78
2023-05-02T09:24:01.658Z,4.35
2023-05-02T09:26:31.609Z,3.90
2023-05-02T09:29:00.155Z,4.43
2023-05-02T09:34:08.652Z,4.20
2023-05-02T09:36:40.749Z,4.40
2023-05-02T09:39:10.187Z,5.10
2023-05-02T09:41:40.199Z,4.50
2023-05-02T09:44:10.579Z,4.05
2023-05-02T09:46:40.173Z,4.50
2023-05-02T09:49:07.248Z,4.40
2023-05-02T09:51:33.967Z,3.70
2023-05-02T09:54:02.516Z,4.13
2023-05-02T09:56:29.305Z,3.78
2023-05-02T09:59:15.054Z,4.50
2023-05-02T10:01:42.538Z,3.88
2023-05-02T10:04:13.509Z,3.90
2023-05-02T10:06:40.490Z,3.53
2023-05-02T10:09:10.080Z,4.60
2023-05-02T10:11:39.047Z,4.90
2023-05-02T10:14:09.228Z,4.68
2023-05-02T10:16:38.653Z,4.78
2023-05-02T10:19:09.568Z,5.45
2023-05-02T10:21:36.954Z,5.10
2023-05-02T10:24:04.940Z,4.55
2023-05-02T10:26:34.989Z,4.72
2023-05-02T10:29:02.413Z,4.93
2023-05-02T10:31:34.555Z,4.28
2023-05-02T10:34:03.012Z,4.25
2023-05-02T10:36:30.857Z,4.70
2023-05-02T10:38:57.700Z,4.57
2023-05-02T10:41:27.692Z,4.38
2023-05-02T10:43:55.949Z,4.32
2023-05-02T10:46:33.406Z,4.50
2023-05-02T10:49:01.573Z,3.90
2023-05-02T10:51:29.293Z,4.38
2023-05-02T10:54:19.526Z,4.32
2023-05-02T10:57:07.832Z,3.92
2023-05-02T10:59:37.404Z,4.10
2023-05-02T11:02:06.989Z,4.28
2023-05-02T11:05:02.369Z,4.65
2023-05-02T11:07:30.467Z,2.90
2023-05-02T11:10:24.469Z,2.92
2023-05-02T11:12:52.465Z,3.80
2023-05-02T11:15:56.623Z,2.83
2023-05-02T11:18:23.436Z,5.10
2023-05-02T11:20:50.277Z,5.63
2023-05-02T11:23:21.786Z,5.38
2023-05-02T11:25:49.526Z,4.88
2023-05-02T11:28:44.758Z,4.55
2023-05-02T11:31:59.504Z,5.40
2023-05-02T11:34:28.250Z,5.93
2023-05-02T11:36:55.224Z,5.38
2023-05-02T11:39:22.006Z,5.60
2023-05-02T11:41:48.905Z,3.90
2023-05-02T11:44:15.706Z,4.47
2023-05-02T11:46:42.615Z,5.32
2023-05-02T11:49:11.052Z,5.60
2023-05-02T11:51:40.376Z,5.93
2023-05-02T11:54:07.715Z,5.45
2023-05-02T11:56:34.832Z,5.60
2023-05-02T11:59:03.089Z,5.22
2023-05-02T12:01:30.302Z,4.40
2023-05-02T12:04:04.085Z,5.95
2023-05-02T12:06:30.844Z,5.78
2023-05-02T12:09:09.203Z,5.32
2023-05-02T12:11:36.027Z,5.47
2023-05-02T12:14:03.430Z,4.68
2023-05-02T12:16:30.672Z,4.80
2023-05-02T12:18:57.858Z,5.15
2023-05-02T12:21:25.232Z,4.13
2023-05-02T12:23:52.286Z,4.40
2023-05-02T12:26:22.821Z,4.60
2023-05-02T12:28:50.417Z,4.75
2023-05-02T12:31:17.268Z,4.80
2023-05-02T12:33:44.388Z,4.72
2023-05-02T12:36:11.735Z,4.68
2023-05-02T12:38:38.640Z,4.95
2023-05-02T12:41:05.904Z,4.72
2023-05-02T12:43:48.396Z,5.68
2023-05-02T12:46:15.166Z,5.55
2023-05-02T12:48:42.338Z,5.20
2023-05-02T12:51:21.610Z,5.70
2023-05-02T12:53:48.533Z,6.25
2023-05-02T12:56:15.349Z,5.32
2023-05-02T12:58:47.513Z,4.03
2023-05-02T13:01:15.328Z,4.10
2023-05-02T13:03:42.675Z,3.85
2023-05-02T13:06:10.425Z,3.35
2023-05-02T13:08:38.170Z,3.80
2023-05-02T13:11:05.134Z,3.88
2023-05-02T13:13:32.018Z,4.00
2023-05-02T13:16:00.207Z,3.60
2023-05-02T13:18:27.444Z,3.72
2023-05-02T13:20:54.282Z,3.50
2023-05-02T13:23:21.042Z,3.42
2023-05-02T13:25:47.800Z,3.90
2023-05-02T13:28:14.535Z,3.67
2023-05-02T13:30:41.406Z,3.35
2023-05-02T13:33:09.612Z,3.20
2023-05-02T13:35:36.570Z,3.10
2023-05-02T13:38:03.597Z,3.03
2023-05-02T13:40:30.504Z,3.30
2023-05-02T13:42:57.295Z,3.67
2023-05-02T13:45:24.102Z,2.90
2023-05-02T13:47:50.900Z,3.25
2023-05-02T13:50:19.148Z,3.22
2023-05-02T13:52:48.397Z,2.65
2023-05-02T13:55:16.069Z,2.85
2023-05-02T13:57:42.835Z,2.83
2023-05-02T14:00:10.957Z,3.22
2023-05-02T14:02:38.397Z,3.10
2023-05-02T14:05:06.080Z,3.20
2023-05-02T14:07:34.205Z,3.20
2023-05-02T14:10:01.143Z,2.88
2023-05-02T14:12:28.164Z,2.75
2023-05-02T14:14:54.943Z,3.88
2023-05-02T14:17:21.770Z,3.10
2023-05-02T14:19:48.499Z,3.65
2023-05-02T14:22:15.333Z,2.70
2023-05-02T14:24:44.337Z,2.92
2023-05-02T14:27:11.122Z,3.22
2023-05-02T14:29:37.944Z,3.17
2023-05-02T14:32:05.252Z,3.08
2023-05-02T14:34:32.160Z,3.15
2023-05-02T14:36:58.912Z,3.42
2023-05-02T14:39:25.687Z,3.28
2023-05-02T14:41:53.822Z,2.92
2023-05-02T14:44:20.720Z,3.08
2023-05-02T14:46:47.593Z,3.33
2023-05-02T14:49:14.397Z,2.80
2023-05-02T14:51:41.218Z,2.90
2023-05-02T14:54:07.992Z,3.30
2023-05-02T14:56:37.695Z,3.30
2023-05-02T14:59:05.878Z,3.10
2023-05-02T15:01:32.680Z,3.40
2023-05-02T15:04:06.821Z,3.30
2023-05-02T15:06:35.160Z,3.33
2023-05-02T15:09:02.504Z,3.17
2023-05-02T15:11:29.409Z,3.08
2023-05-02T15:13:58.435Z,2.85
2023-05-02T15:16:27.657Z,3.40
2023-05-02T15:18:54.571Z,2.80
2023-05-02T15:21:21.697Z,2.63
2023-05-02T15:23:48.464Z,2.80
2023-05-02T15:26:15.381Z,2.60
2023-05-02T15:28:42.209Z,2.88
2023-05-02T15:31:08.973Z,2.47
2023-05-02T15:33:37.854Z,3.13
2023-05-02T15:36:05.049Z,4.43
2023-05-02T15:38:31.849Z,3.05
2023-05-02T15:40:59.567Z,2.45
2023-05-02T15:43:26.983Z,2.33
2023-05-02T15:45:54.738Z,2.47
2023-05-02T15:48:22.272Z,2.50
2023-05-02T15:50:50.443Z,2.00
2023-05-02T15:53:17.239Z,2.20
2023-05-02T15:55:45.133Z,2.33
2023-05-02T15:58:12.215Z,2.75
2023-05-02T16:00:38.986Z,2.08
2023-05-02T16:03:05.787Z,3.83
2023-05-02T16:05:33.003Z,2.00
2023-05-02T16:08:01.228Z,1.83
2023-05-02T16:10:28.143Z,1.90
2023-05-02T16:12:54.929Z,1.85
2023-05-02T16:15:22.241Z,1.98
2023-05-02T16:17:49.747Z,1.88
2023-05-02T16:20:16.809Z,2.10
2023-05-02T16:22:43.966Z,2.40
2023-05-02T16:25:12.385Z,2.00
2023-05-02T16:27:39.176Z,2.40
2023-05-02T16:30:07.118Z,2.63
2023-05-02T16:32:34.251Z,2.28
2023-05-02T16:35:01.038Z,2.63
2023-05-02T16:37:27.817Z,2.30
2023-05-02T16:39:54.627Z,2.20
2023-05-02T16:42:22.787Z,2.40
2023-05-02T16:44:49.540Z,2.30
2023-05-02T16:47:16.368Z,2.50
2023-05-02T16:49:43.139Z,2.95
2023-05-02T16:52:09.956Z,2.80
2023-05-02T16:54:36.767Z,2.92
2023-05-02T16:57:03.711Z,2.75
2023-05-02T16:59:31.913Z,2.50
2023-05-02T17:07:17.217Z,2.50
2023-05-02T17:09:44.562Z,2.38
2023-05-02T17:12:12.222Z,2.10
2023-05-02T17:14:48.135Z,2.15
2023-05-02T17:17:17.215Z,2.55
2023-05-02T17:19:44.002Z,2.70
2023-05-02T17:22:10.785Z,2.40
2023-05-02T17:24:37.809Z,2.47
2023-05-02T17:27:04.592Z,2.63
2023-05-02T17:29:31.348Z,2.78
2023-05-02T17:32:03.501Z,2.70
2023-05-02T17:34:31.934Z,2.42
2023-05-02T17:36:58.817Z,2.50
2023-05-02T17:39:25.540Z,2.45
2023-05-02T17:41:52.388Z,2.53
2023-05-02T17:44:21.600Z,2.53
2023-05-02T17:46:48.426Z,2.70
2023-05-02T17:49:16.721Z,2.92
2023-05-02T17:51:43.547Z,2.35
2023-05-02T17:54:10.351Z,2.40
2023-05-02T17:56:37.141Z,2.80
2023-05-02T17:59:06.521Z,2.92
2023-05-02T18:01:33.526Z,2.55
2023-05-02T18:04:00.420Z,2.40
2023-05-02T18:06:28.786Z,2.67
2023-05-02T18:08:55.617Z,2.67
2023-05-02T18:11:22.488Z,2.30
2023-05-02T18:13:52.153Z,2.88
2023-05-02T18:16:18.957Z,2.53
2023-05-02T18:18:45.832Z,2.60
2023-05-02T18:21:23.751Z,2.35
2023-05-02T18:23:51.851Z,2.85
2023-05-02T18:26:18.653Z,3.25
2023-05-02T18:28:45.417Z,2.45
2023-05-02T18:31:23.705Z,2.25
2023-05-02T18:33:53.469Z,2.40
2023-05-02T18:36:28.367Z,2.42
2023-05-02T18:38:56.552Z,2.22
2023-05-02T18:41:24.013Z,2.63
2023-05-02T18:43:50.793Z,2.30
2023-05-02T18:46:17.833Z,2.65
2023-05-02T18:48:47.293Z,2.30
2023-05-02T18:51:17.053Z,2.45
2023-05-02T18:53:43.807Z,2.78
2023-05-02T18:56:15.348Z,2.90
2023-05-02T18:58:42.321Z,3.05
2023-05-02T19:01:12.910Z,3.28
2023-05-02T19:03:40.362Z,3.20
2023-05-02T19:06:10.297Z,3.30
2023-05-02T19:08:38.318Z,3.25
2023-05-02T19:11:07.930Z,3.78
2023-05-02T19:13:37.231Z,4.60
2023-05-02T19:16:06.267Z,4.05
2023-05-02T19:18:34.240Z,3.78
2023-05-02T19:21:08.233Z,3.72
2023-05-02T19:23:35.034Z,3.90
2023-05-02T19:26:01.813Z,3.35
2023-05-02T19:28:28.937Z,3.95
2023-05-02T19:31:00.280Z,4.05
2023-05-02T19:33:31.980Z,3.78
2023-05-02T19:35:58.777Z,4.43
2023-05-02T19:38:35.151Z,4.85
2023-05-02T19:41:07.613Z,5.35
2023-05-02T19:43:34.719Z,5.50
2023-05-02T19:46:11.094Z,5.00
2023-05-02T19:48:38.083Z,5.97
2023-05-02T19:51:05.434Z,6.53
2023-05-02T19:53:36.436Z,5.10
2023-05-02T19:56:08.080Z,4.53
2023-05-02T19:58:36.536Z,5.10
2023-05-02T20:01:04.943Z,3.92
2023-05-02T20:03:37.058Z,4.22
2023-05-02T20:06:04.303Z,3.75
2023-05-02T20:08:31.432Z,3.40
2023-05-02T20:10:58.270Z,4.38
2023-05-02T20:13:25.136Z,5.22
2023-05-02T20:15:52.811Z,8.63
2023-05-02T20:18:21.167Z,3.33
2023-05-02T20:20:48.092Z,3.45
2023-05-02T20:23:14.898Z,4.03
2023-05-02T20:25:42.872Z,4.97
2023-05-02T20:28:09.930Z,4.30
2023-05-02T20:30:36.713Z,4.90
2023-05-02T20:33:14.085Z,5.05
2023-05-02T20:35:43.642Z,4.30
2023-05-02T20:38:10.828Z,4.05
2023-05-02T20:40:40.014Z,4.25
2023-05-02T20:43:07.059Z,4.50
2023-05-02T20:45:33.809Z,5.22
2023-05-02T20:48:00.788Z,6.20
2023-05-02T20:50:27.709Z,5.78
2023-05-02T20:52:55.846Z,6.82
2023-05-02T20:55:22.916Z,12.07
2023-05-02T20:57:49.747Z,6.10
2023-05-02T21:00:17.324Z,6.88
2023-05-02T21:02:44.153Z,7.32
2023-05-02T21:05:10.949Z,7.57
2023-05-02T21:07:37.704Z,7.95
2023-05-02T21:10:07.733Z,8.10
2023-05-02T21:12:34.533Z,7.85
2023-05-02T21:15:01.356Z,8.45
2023-05-02T21:17:28.088Z,7.22
2023-05-02T21:19:54.830Z,8.60
2023-05-02T21:22:21.704Z,8.13
2023-05-02T21:24:48.494Z,7.60
2023-05-02T21:27:16.749Z,7.60
2023-05-02T21:29:43.579Z,7.25
2023-05-02T21:32:10.411Z,7.45
2023-05-02T21:34:37.210Z,6.70
2023-05-02T21:37:04.208Z,8.13
2023-05-02T21:39:30.971Z,7.60
2023-05-02T21:41:57.807Z,7.88
2023-05-02T21:44:25.934Z,7.38
2023-05-02T21:46:52.742Z,7.80
2023-05-02T21:49:19.553Z,8.18
2023-05-02T21:51:46.271Z,8.45
2023-05-02T21:54:13.045Z,7.75
2023-05-02T21:56:39.772Z,7.85
2023-05-02T21:59:06.504Z,7.75
2023-05-02T22:01:34.626Z,7.47
2023-05-02T22:04:01.366Z,7.57
2023-05-02T22:06:28.170Z,7.18
2023-05-02T22:08:54.974Z,6.68
2023-05-02T22:11:21.908Z,6.18
2023-05-02T22:13:48.670Z,6.40
2023-05-02T22:16:15.558Z,6.68
2023-05-02T22:18:43.718Z,6.95
2023-05-02T22:21:11.324Z,6.15
2023-05-02T22:23:38.323Z,5.28
2023-05-02T22:26:05.165Z,5.78
2023-05-02T22:28:31.908Z,5.53
2023-05-02T22:30:58.710Z,5.10
2023-05-02T22:33:25.512Z,5.25
2023-05-02T22:35:53.616Z,4.68
2023-05-02T22:38:20.600Z,5.07
2023-05-02T22:40:47.429Z,5.40
2023-05-02T22:43:14.237Z,4.57
2023-05-02T22:45:41.000Z,4.18
2023-05-02T22:48:07.804Z,4.78
2023-05-02T22:50:34.793Z,4.40
2023-05-02T22:53:02.866Z,4.50
2023-05-02T22:55:29.737Z,4.60
2023-05-02T22:57:57.141Z,4.05
2023-05-02T23:00:24.365Z,4.47
2023-05-02T23:02:51.856Z,4.65
2023-05-02T23:05:19.243Z,4.28
2023-05-02T23:07:46.491Z,4.43
2023-05-02T23:10:16.165Z,4.40
2023-05-02T23:12:44.165Z,4.38
2023-05-02T23:15:12.490Z,4.90
2023-05-02T23:20:22.761Z,4.50
2023-05-02T23:22:52.543Z,4.50
2023-05-02T23:25:31.655Z,4.18
2023-05-02T23:27:59.843Z,5.28
2023-05-02T23:33:10.126Z,4.40
2023-05-02T23:35:37.394Z,4.50
2023-05-02T23:38:07.558Z,4.75
2023-05-02T23:40:38.415Z,4.22
2023-05-02T23:43:05.733Z,4.05
2023-05-02T23:45:35.061Z,4.43
2023-05-02T23:48:02.396Z,4.85
2023-05-02T23:50:30.516Z,4.15
2023-05-02T23:52:57.857Z,4.60
2023-05-02T23:55:26.036Z,5.13
